createdAt,value
2023-01-24T00:00:49.598Z,103212.13
2023-01-24T00:01:53.838Z,103213.92
2023-01-24T00:02:58.109Z,103217.09
2023-01-24T00:04:02.336Z,103220.36
2023-01-24T00:05:06.601Z,103221.01
2023-01-24T00:06:10.829Z,103219.25
2023-01-24T00:07:15.091Z,103210.98
2023-01-24T00:08:19.315Z,103217.56
2023-01-24T00:09:23.569Z,103211.94
2023-01-24T00:10:27.806Z,103213.5
2023-01-24T00:11:32.058Z,103215.95
2023-01-24T00:12:36.287Z,103220.44
2023-01-24T00:13:40.630Z,103215.49
2023-01-24T00:14:44.906Z,103213.58
2023-01-24T00:15:49.210Z,103215.19
2023-01-24T00:16:53.526Z,103225.33
2023-01-24T00:17:57.757Z,103218.36
2023-01-24T00:19:02.018Z,103222.64
2023-01-24T00:20:06.269Z,103224.25
2023-01-24T00:21:10.535Z,103218.09
2023-01-24T00:22:14.815Z,103222.45
2023-01-24T00:23:19.063Z,103218.63
2023-01-24T00:24:23.463Z,103228.66
2023-01-24T00:25:27.764Z,103222.06
2023-01-24T00:26:32.039Z,103219.32
2023-01-24T00:27:36.374Z,103218.86
2023-01-24T00:28:40.623Z,103223.22
2023-01-24T00:29:44.860Z,103223.91
2023-01-24T00:30:49.233Z,103215.83
2023-01-24T00:31:53.759Z,103221.3
2023-01-24T00:32:58.293Z,103220.16
2023-01-24T00:34:02.543Z,103215.88
2023-01-24T00:35:06.778Z,103217.74
2023-01-24T00:36:11.026Z,103218.28
2023-01-24T00:37:15.284Z,103223.68
2023-01-24T00:38:19.561Z,103219.28
2023-01-24T00:39:23.802Z,103224.78
2023-01-24T00:40:28.012Z,103228.31
2023-01-24T00:41:32.534Z,103223.72
2023-01-24T00:42:36.776Z,103224.83
2023-01-24T00:43:41.051Z,103221
2023-01-24T00:44:45.324Z,103221.95
2023-01-24T00:45:49.703Z,103221.18
2023-01-24T00:46:54.027Z,103217.13
2023-01-24T00:47:58.324Z,103225.97
2023-01-24T00:49:02.596Z,103226.31
2023-01-24T00:50:10.329Z,103227.08
2023-01-24T00:51:15.157Z,103226.31
2023-01-24T00:52:19.757Z,103230.72
2023-01-24T00:53:24.534Z,103226.12
2023-01-24T00:54:28.805Z,103222.44
2023-01-24T00:55:33.031Z,103230.94
2023-01-24T00:56:37.248Z,103229.22
2023-01-24T00:57:41.528Z,103225.55
2023-01-24T00:58:45.780Z,103224.17
2023-01-24T00:59:50.096Z,103231.78
2023-01-24T01:00:54.370Z,103223.93
2023-01-24T01:01:58.656Z,103220.6
2023-01-24T01:03:03.269Z,103221.62
2023-01-24T01:04:07.583Z,103223.92
2023-01-24T01:05:11.805Z,103225.95
2023-01-24T01:06:16.247Z,103225.55
2023-01-24T01:07:20.541Z,103221.11
2023-01-24T01:08:24.795Z,103223.82
2023-01-24T01:09:29.036Z,103219.23
2023-01-24T01:10:33.276Z,103229.53
2023-01-24T01:11:37.531Z,103237.14
2023-01-24T01:12:41.751Z,103227.84
2023-01-24T01:13:45.978Z,103230.37
2023-01-24T01:14:50.328Z,103232.24
2023-01-24T01:15:54.644Z,103242.04
2023-01-24T01:16:58.982Z,103241.92
2023-01-24T01:18:03.248Z,103232.2
2023-01-24T01:19:07.508Z,103239.33
2023-01-24T01:20:11.751Z,103228.72
2023-01-24T01:21:15.981Z,103227.98
2023-01-24T01:22:20.208Z,103231.28
2023-01-24T01:23:24.421Z,103226.98
2023-01-24T01:24:28.670Z,103223.92
2023-01-24T01:25:32.932Z,103227.63
2023-01-24T01:26:37.173Z,103226.71
2023-01-24T01:27:41.430Z,103227.17
2023-01-24T01:28:45.713Z,103226.78
2023-01-24T01:29:49.947Z,103226.78
2023-01-24T01:30:54.476Z,103224.18
2023-01-24T01:31:59.226Z,103228.27
2023-01-24T01:33:03.735Z,103234.09
2023-01-24T01:34:08.003Z,103230.18
2023-01-24T01:35:12.319Z,103228.88
2023-01-24T01:36:16.580Z,103228.84
2023-01-24T01:37:20.921Z,103227.58
2023-01-24T01:38:25.229Z,103230.6
2023-01-24T01:39:29.490Z,103227.73
2023-01-24T01:40:33.748Z,103228.84
2023-01-24T01:41:38.015Z,103225.32
2023-01-24T01:42:42.233Z,103228.39
2023-01-24T01:43:46.505Z,103230.3
2023-01-24T01:44:50.816Z,103225.32
2023-01-24T01:45:55.189Z,103228.88
2023-01-24T01:46:59.671Z,103233.47
2023-01-24T01:48:03.925Z,103224.09
2023-01-24T01:49:08.256Z,103223.59
2023-01-24T01:50:12.551Z,103230.41
2023-01-24T01:51:16.810Z,103221.45
2023-01-24T01:52:21.036Z,103225.05
2023-01-24T01:53:25.257Z,103228.11
2023-01-24T01:54:29.548Z,103226.39
2023-01-24T01:55:33.785Z,103226.77
2023-01-24T01:56:38.070Z,103223.67
2023-01-24T01:57:42.270Z,103222.44
2023-01-24T01:58:46.567Z,103218.81
2023-01-24T01:59:50.861Z,103215.71
2023-01-24T02:00:55.246Z,103218.73
2023-01-24T02:02:00.033Z,103213.84
2023-01-24T02:03:04.376Z,103218.81
2023-01-24T02:04:08.603Z,103222.26
2023-01-24T02:05:12.876Z,103221.3
2023-01-24T02:06:17.164Z,103223.7
2023-01-24T02:07:21.447Z,103218.39
2023-01-24T02:08:25.779Z,103216.09
2023-01-24T02:09:30.081Z,103217.92
2023-01-24T02:10:34.319Z,103213.14
2023-01-24T02:11:38.632Z,103216.33
2023-01-24T02:12:42.937Z,103221.23
2023-01-24T02:13:47.187Z,103219.66
2023-01-24T02:14:51.466Z,103212.05
2023-01-24T02:15:55.711Z,103208.75
2023-01-24T02:17:00.137Z,103209.59
2023-01-24T02:18:04.399Z,103204.59
2023-01-24T02:19:08.682Z,103203.48
2023-01-24T02:20:12.950Z,103203.02
2023-01-24T02:21:17.408Z,103201.91
2023-01-24T02:22:21.665Z,103205.97
2023-01-24T02:23:25.904Z,103203.58
2023-01-24T02:24:30.173Z,103203.97
2023-01-24T02:25:34.410Z,103208.37
2023-01-24T02:26:38.750Z,103204.43
2023-01-24T02:27:43.025Z,103202.28
2023-01-24T02:28:47.412Z,103197.77
2023-01-24T02:29:51.665Z,103204.85
2023-01-24T02:30:56.027Z,103201.79
2023-01-24T02:32:00.629Z,103204.47
2023-01-24T02:33:04.911Z,103203.7
2023-01-24T02:34:09.346Z,103204.19
2023-01-24T02:35:13.584Z,103201.48
2023-01-24T02:36:17.837Z,103201.02
2023-01-24T02:37:22.067Z,103202.93
2023-01-24T02:38:26.321Z,103210.58
2023-01-24T02:39:30.554Z,103200.25
2023-01-24T02:40:34.832Z,103207.14
2023-01-24T02:41:39.143Z,103209.13
2023-01-24T02:42:43.411Z,103213.56
2023-01-24T02:43:47.713Z,103210.92
2023-01-24T02:44:51.975Z,103215.75
2023-01-24T02:45:56.391Z,103211.42
2023-01-24T02:47:00.806Z,103218.53
2023-01-24T02:48:05.050Z,103217.05
2023-01-24T02:49:09.322Z,103215.51
2023-01-24T02:50:13.614Z,103215.55
2023-01-24T02:51:17.892Z,103215.55
2023-01-24T02:52:22.177Z,103214.91
2023-01-24T02:53:26.410Z,103212.99
2023-01-24T02:54:30.691Z,103214.41
2023-01-24T02:55:34.906Z,103212.47
2023-01-24T02:56:39.141Z,103222.75
2023-01-24T02:57:43.382Z,103222.06
2023-01-24T02:58:47.639Z,103219.87
2023-01-24T02:59:52.008Z,103213.18
2023-01-24T03:00:56.419Z,103219.95
2023-01-24T03:02:00.917Z,103219.45
2023-01-24T03:03:05.238Z,103211.03
2023-01-24T03:04:09.468Z,103211.03
2023-01-24T03:05:13.723Z,103216.95
2023-01-24T03:06:17.971Z,103216.43
2023-01-24T03:07:22.230Z,103219.53
2023-01-24T03:08:26.498Z,103221.81
2023-01-24T03:09:30.764Z,103218.3
2023-01-24T03:10:35.001Z,103218.34
2023-01-24T03:11:39.302Z,103217.34
2023-01-24T03:12:43.541Z,103221.55
2023-01-24T03:13:47.773Z,103218.87
2023-01-24T03:14:52.017Z,103224.08
2023-01-24T03:15:56.314Z,103231.19
2023-01-24T03:17:00.590Z,103224.53
2023-01-24T03:18:04.881Z,103229.61
2023-01-24T03:19:09.160Z,103228.27
2023-01-24T03:20:13.412Z,103226.09
2023-01-24T03:21:17.644Z,103226.59
2023-01-24T03:22:21.909Z,103225.59
2023-01-24T03:23:26.178Z,103230.53
2023-01-24T03:24:30.466Z,103226.16
2023-01-24T03:25:34.729Z,103228.8
2023-01-24T03:26:39.015Z,103227.89
2023-01-24T03:27:43.241Z,103228.84
2023-01-24T03:28:47.491Z,103231.3
2023-01-24T03:29:51.718Z,103234.4
2023-01-24T03:30:55.981Z,103235
2023-01-24T03:32:00.523Z,103239.09
2023-01-24T03:33:05.002Z,103238.74
2023-01-24T03:34:09.265Z,103232.47
2023-01-24T03:35:13.532Z,103235.26
2023-01-24T03:36:17.769Z,103240.3
2023-01-24T03:37:22.043Z,103236.05
2023-01-24T03:38:26.282Z,103231.61
2023-01-24T03:39:30.550Z,103238.23
2023-01-24T03:40:34.781Z,103237.34
2023-01-24T03:41:39.035Z,103233.44
2023-01-24T03:42:45.048Z,103235.55
2023-01-24T03:43:49.293Z,103231.64
2023-01-24T03:44:53.520Z,103235.66
2023-01-24T03:45:57.873Z,103238.76
2023-01-24T03:47:02.165Z,103236.23
2023-01-24T03:48:06.439Z,103242.81
2023-01-24T03:49:10.661Z,103239.67
2023-01-24T03:50:14.904Z,103232.59
2023-01-24T03:51:19.131Z,103234.47
2023-01-24T03:52:23.419Z,103238.98
2023-01-24T03:53:27.677Z,103236.65
2023-01-24T03:54:31.915Z,103232.45
2023-01-24T03:55:36.249Z,103232.8
2023-01-24T03:56:40.466Z,103231.04
2023-01-24T03:57:44.725Z,103229.2
2023-01-24T03:58:48.972Z,103231.53
2023-01-24T03:59:53.242Z,103232.31
2023-01-24T04:00:57.609Z,103233.83
2023-01-24T04:02:02.071Z,103236.65
2023-01-24T04:03:06.403Z,103240.28
2023-01-24T04:04:10.799Z,103234.32
2023-01-24T04:05:15.101Z,103242.81
2023-01-24T04:06:19.394Z,103234.92
2023-01-24T04:07:28.208Z,103236.69
2023-01-24T04:08:32.461Z,103240.98
2023-01-24T04:09:36.742Z,103234.74
2023-01-24T04:10:41.023Z,103238.87
2023-01-24T04:11:45.260Z,103237.53
2023-01-24T04:12:49.467Z,103239.25
2023-01-24T04:13:53.707Z,103232.38
2023-01-24T04:14:57.967Z,103227.59
2023-01-24T04:16:02.230Z,103226.81
2023-01-24T04:17:06.547Z,103237
2023-01-24T04:18:10.790Z,103229.57
2023-01-24T04:19:15.030Z,103231.68
2023-01-24T04:20:19.276Z,103228.47
2023-01-24T04:21:23.531Z,103231.3
2023-01-24T04:22:27.786Z,103224.84
2023-01-24T04:23:32.013Z,103226.44
2023-01-24T04:24:36.281Z,103220.63
2023-01-24T04:25:40.544Z,103220.55
2023-01-24T04:26:44.814Z,103217.3
2023-01-24T04:27:49.141Z,103216.99
2023-01-24T04:28:53.394Z,103226.51
2023-01-24T04:29:57.646Z,103219.88
2023-01-24T04:31:02.167Z,103220.77
2023-01-24T04:32:06.792Z,103218.27
2023-01-24T04:33:11.057Z,103223.16
2023-01-24T04:34:15.341Z,103224.08
2023-01-24T04:35:20.271Z,103214.95
2023-01-24T04:36:25.319Z,103219.28
2023-01-24T04:37:29.556Z,103215.38
2023-01-24T04:38:33.809Z,103225.8
2023-01-24T04:39:38.143Z,103224.54
2023-01-24T04:40:42.407Z,103220.06
2023-01-24T04:41:46.654Z,103224.96
2023-01-24T04:42:50.894Z,103215.7
2023-01-24T04:43:55.146Z,103217.28
2023-01-24T04:44:59.360Z,103215.56
2023-01-24T04:46:03.615Z,103214.75
2023-01-24T04:47:07.966Z,103216.52
2023-01-24T04:48:12.431Z,103209.92
2023-01-24T04:49:16.702Z,103204.01
2023-01-24T04:50:20.911Z,103211.27
2023-01-24T04:51:25.153Z,103200.21
2023-01-24T04:52:29.372Z,103203.8
2023-01-24T04:53:33.608Z,103198.88
2023-01-24T04:54:37.852Z,103202.67
2023-01-24T04:55:42.097Z,103205.73
2023-01-24T04:56:46.380Z,103209.67
2023-01-24T04:57:50.745Z,103207.95
2023-01-24T04:58:54.948Z,103209.86
2023-01-24T04:59:59.214Z,103210.17
2023-01-24T05:01:04.816Z,103213.61
2023-01-24T05:02:09.223Z,103207.73
2023-01-24T05:03:13.639Z,103215.03
2023-01-24T05:04:17.952Z,103208.39
2023-01-24T05:05:23.076Z,103213.71
2023-01-24T05:06:27.960Z,103214.09
2023-01-24T05:07:32.229Z,103207.92
2023-01-24T05:08:36.595Z,103216.66
2023-01-24T05:09:40.872Z,103219.28
2023-01-24T05:10:45.106Z,103217.23
2023-01-24T05:11:49.321Z,103223.15
2023-01-24T05:12:53.546Z,103215.8
2023-01-24T05:13:57.804Z,103213.53
2023-01-24T05:15:02.074Z,103216.28
2023-01-24T05:16:06.436Z,103214.29
2023-01-24T05:17:10.849Z,103227.33
2023-01-24T05:18:15.172Z,103218.81
2023-01-24T05:19:19.578Z,103223.95
2023-01-24T05:20:23.989Z,103231.48
2023-01-24T05:21:28.211Z,103222.32
2023-01-24T05:22:32.493Z,103228.25
2023-01-24T05:23:36.723Z,103225.78
2023-01-24T05:24:41.267Z,103223.69
2023-01-24T05:25:45.486Z,103231.23
2023-01-24T05:26:49.746Z,103229.19
2023-01-24T05:27:53.977Z,103234.98
2023-01-24T05:28:58.201Z,103231.72
2023-01-24T05:30:02.471Z,103226.25
2023-01-24T05:31:06.853Z,103229.61
2023-01-24T05:32:11.164Z,103239.16
2023-01-24T05:33:15.510Z,103240.25
2023-01-24T05:34:19.760Z,103236.69
2023-01-24T05:35:24.613Z,103242.59
2023-01-24T05:36:28.949Z,103239.95
2023-01-24T05:37:33.276Z,103249.94
2023-01-24T05:38:37.542Z,103241.7
2023-01-24T05:39:41.886Z,103244.97
2023-01-24T05:40:46.159Z,103248.73
2023-01-24T05:41:50.403Z,103245.66
2023-01-24T05:42:54.703Z,103249.05
2023-01-24T05:43:58.926Z,103242.08
2023-01-24T05:45:03.194Z,103249.37
2023-01-24T05:46:07.567Z,103246.3
2023-01-24T05:47:11.935Z,103251.87
2023-01-24T05:48:16.178Z,103249.45
2023-01-24T05:49:20.436Z,103251.91
2023-01-24T05:50:24.687Z,103254.25
2023-01-24T05:51:28.922Z,103251.73
2023-01-24T05:52:33.215Z,103250.89
2023-01-24T05:53:37.451Z,103253.34
2023-01-24T05:54:41.737Z,103255.77
2023-01-24T05:55:45.995Z,103258.14
2023-01-24T05:56:50.286Z,103256
2023-01-24T05:57:54.525Z,103258.03
2023-01-24T05:58:58.818Z,103257.19
2023-01-24T06:00:03.138Z,103266.73
2023-01-24T06:01:07.389Z,103260.17
2023-01-24T06:02:11.857Z,103258.56
2023-01-24T06:03:16.656Z,103264.05
2023-01-24T06:04:21.201Z,103262.4
2023-01-24T06:05:26.069Z,103258.95
2023-01-24T06:06:30.741Z,103259.45
2023-01-24T06:07:35.030Z,103264.7
2023-01-24T06:08:39.298Z,103259.34
2023-01-24T06:09:43.533Z,103270.44
2023-01-24T06:10:47.808Z,103268.8
2023-01-24T06:11:52.038Z,103269.6
2023-01-24T06:12:56.343Z,103274.16
2023-01-24T06:14:00.597Z,103274.12
2023-01-24T06:15:04.853Z,103270.09
2023-01-24T06:16:09.246Z,103269.72
2023-01-24T06:17:13.619Z,103263.55
2023-01-24T06:18:17.904Z,103266.34
2023-01-24T06:19:22.161Z,103272.73
2023-01-24T06:20:26.411Z,103260.37
2023-01-24T06:21:30.677Z,103268.95
2023-01-24T06:22:34.950Z,103263.77
2023-01-24T06:23:39.187Z,103263.89
2023-01-24T06:24:43.417Z,103269.67
2023-01-24T06:25:47.682Z,103272.88
2023-01-24T06:26:52.376Z,103273.34
2023-01-24T06:27:56.628Z,103274.69
2023-01-24T06:29:00.890Z,103274.31
2023-01-24T06:30:05.168Z,103272.47
2023-01-24T06:31:09.856Z,103275.72
2023-01-24T06:32:14.393Z,103272.7
2023-01-24T06:33:18.618Z,103276.19
2023-01-24T06:34:22.849Z,103271.05
2023-01-24T06:35:27.095Z,103271.12
2023-01-24T06:36:31.572Z,103274.61
2023-01-24T06:37:35.823Z,103273.3
2023-01-24T06:38:40.272Z,103271.2
2023-01-24T06:39:44.512Z,103278.77
2023-01-24T06:40:48.798Z,103283.37
2023-01-24T06:41:53.055Z,103286.58
2023-01-24T06:42:57.299Z,103284.75
2023-01-24T06:44:01.574Z,103278.39
2023-01-24T06:45:05.861Z,103278.96
2023-01-24T06:46:10.299Z,103280.45
2023-01-24T06:47:14.692Z,103285.31
2023-01-24T06:48:19.153Z,103274.25
2023-01-24T06:49:23.611Z,103284.93
2023-01-24T06:50:27.915Z,103289.38
2023-01-24T06:51:32.164Z,103287.19
2023-01-24T06:52:36.556Z,103283.98
2023-01-24T06:53:40.989Z,103289.53
2023-01-24T06:54:45.435Z,103282.99
2023-01-24T06:55:49.776Z,103294.33
2023-01-24T06:56:54.037Z,103289.66
2023-01-24T06:57:58.493Z,103290.28
2023-01-24T06:59:02.733Z,103293.8
2023-01-24T07:00:06.956Z,103287.13
2023-01-24T07:01:11.296Z,103284.06
2023-01-24T07:02:15.627Z,103290.16
2023-01-24T07:03:22.514Z,103298.48
2023-01-24T07:04:26.843Z,103291.09
2023-01-24T07:05:31.091Z,103297.52
2023-01-24T07:06:35.505Z,103294.07
2023-01-24T07:07:39.734Z,103293.12
2023-01-24T07:08:44.000Z,103293.69
2023-01-24T07:09:48.253Z,103304.55
2023-01-24T07:10:52.504Z,103297.78
2023-01-24T07:11:56.812Z,103297.7
2023-01-24T07:13:01.122Z,103300.53
2023-01-24T07:14:05.351Z,103296.97
2023-01-24T07:15:09.710Z,103298.31
2023-01-24T07:16:14.007Z,103297.13
2023-01-24T07:17:18.307Z,103291.03
2023-01-24T07:18:22.533Z,103305.34
2023-01-24T07:19:26.834Z,103307.75
2023-01-24T07:20:31.127Z,103303.27
2023-01-24T07:21:35.401Z,103308.34
2023-01-24T07:22:39.689Z,103307.05
2023-01-24T07:23:44.025Z,103306.44
2023-01-24T07:24:48.334Z,103307.47
2023-01-24T07:25:52.591Z,103306.44
2023-01-24T07:26:56.862Z,103308.88
2023-01-24T07:28:01.147Z,103308.88
2023-01-24T07:29:05.493Z,103306.84
2023-01-24T07:30:09.781Z,103309.73
2023-01-24T07:31:14.249Z,103308.11
2023-01-24T07:32:18.947Z,103304.31
2023-01-24T07:33:23.345Z,103310.23
2023-01-24T07:34:27.577Z,103309.04
2023-01-24T07:35:31.856Z,103315.81
2023-01-24T07:36:36.102Z,103315.35
2023-01-24T07:37:40.348Z,103314.93
2023-01-24T07:38:44.644Z,103313.06
2023-01-24T07:39:48.883Z,103317.15
2023-01-24T07:40:53.183Z,103316.4
2023-01-24T07:41:57.465Z,103320.3
2023-01-24T07:43:01.763Z,103317.4
2023-01-24T07:44:06.062Z,103321.62
2023-01-24T07:45:10.370Z,103323.3
2023-01-24T07:46:14.733Z,103326.65
2023-01-24T07:47:19.187Z,103319.8
2023-01-24T07:48:23.672Z,103328.58
2023-01-24T07:49:27.895Z,103327.86
2023-01-24T07:50:32.180Z,103326.33
2023-01-24T07:51:36.518Z,103322.5
2023-01-24T07:52:40.808Z,103326.61
2023-01-24T07:53:45.043Z,103320.64
2023-01-24T07:54:49.509Z,103326.73
2023-01-24T07:56:03.293Z,103320.65
2023-01-24T07:57:07.567Z,103322.72
2023-01-24T07:58:11.841Z,103322.22
2023-01-24T07:59:16.258Z,103328.39
2023-01-24T08:00:22.231Z,103322.64
2023-01-24T08:01:27.067Z,103329.61
2023-01-24T08:02:31.448Z,103330.88
2023-01-24T08:03:35.805Z,103328.27
2023-01-24T08:04:40.060Z,103330.49
2023-01-24T08:05:44.311Z,103328.92
2023-01-24T08:06:48.595Z,103325.05
2023-01-24T08:07:53.016Z,103321.56
2023-01-24T08:08:57.262Z,103322.09
2023-01-24T08:10:01.494Z,103321.78
2023-01-24T08:11:05.817Z,103326.41
2023-01-24T08:12:10.082Z,103320.33
2023-01-24T08:13:14.426Z,103322.23
2023-01-24T08:14:18.654Z,103320.12
2023-01-24T08:15:22.891Z,103326.83
2023-01-24T08:16:27.395Z,103321.92
2023-01-24T08:17:31.752Z,103322.53
2023-01-24T08:18:36.042Z,103321.69
2023-01-24T08:19:58.087Z,103320.46
2023-01-24T08:21:02.495Z,103322.26
2023-01-24T08:22:06.790Z,103317.44
2023-01-24T08:23:11.089Z,103315.7
2023-01-24T08:24:15.498Z,103325.09
2023-01-24T08:25:19.986Z,103317.58
2023-01-24T08:26:24.547Z,103321.64
2023-01-24T08:27:28.800Z,103319.38
2023-01-24T08:28:33.357Z,103320.44
2023-01-24T08:29:37.576Z,103313.74
2023-01-24T08:30:41.848Z,103315.16
2023-01-24T08:31:46.239Z,103320.24
2023-01-24T08:32:50.544Z,103322.15
2023-01-24T08:33:54.776Z,103318.83
2023-01-24T08:34:59.049Z,103325.21
2023-01-24T08:36:03.329Z,103322.23
2023-01-24T08:37:07.572Z,103316.09
2023-01-24T08:38:11.806Z,103317.55
2023-01-24T08:39:28.691Z,103321.22
2023-01-24T08:40:49.683Z,103317.73
2023-01-24T08:41:54.739Z,103315.13
2023-01-24T08:42:59.014Z,103322.39
2023-01-24T08:44:03.274Z,103313.93
2023-01-24T08:45:07.587Z,103319.42
2023-01-24T08:46:12.133Z,103323.06
2023-01-24T08:47:16.495Z,103319.33
2023-01-24T08:48:20.747Z,103322.95
2023-01-24T08:49:25.033Z,103321.3
2023-01-24T08:50:29.341Z,103328.95
2023-01-24T08:51:33.578Z,103324.16
2023-01-24T08:52:37.897Z,103327.26
2023-01-24T08:53:42.150Z,103328.73
2023-01-24T08:54:46.407Z,103324.23
2023-01-24T08:55:50.642Z,103328.21
2023-01-24T08:56:54.869Z,103323.24
2023-01-24T08:57:59.101Z,103322.71
2023-01-24T08:59:03.415Z,103324.78
2023-01-24T09:00:07.729Z,103318.44
2023-01-24T09:01:12.004Z,103322.31
2023-01-24T09:02:16.455Z,103320.75
2023-01-24T09:03:20.831Z,103323.67
2023-01-24T09:04:25.062Z,103324.98
2023-01-24T09:05:29.435Z,103323
2023-01-24T09:06:34.013Z,103318.52
2023-01-24T09:07:38.352Z,103319.4
2023-01-24T09:08:42.591Z,103325.11
2023-01-24T09:09:46.841Z,103330.08
2023-01-24T09:10:51.079Z,103329.13
2023-01-24T09:11:55.310Z,103332.3
2023-01-24T09:12:59.735Z,103332.72
2023-01-24T09:14:04.018Z,103332.38
2023-01-24T09:15:08.262Z,103330.57
2023-01-24T09:16:12.667Z,103333.82
2023-01-24T09:17:16.964Z,103334.81
2023-01-24T09:18:21.283Z,103337.06
2023-01-24T09:19:25.525Z,103332.63
2023-01-24T09:20:29.766Z,103334.46
2023-01-24T09:21:34.200Z,103335.42
2023-01-24T09:22:38.560Z,103334.57
2023-01-24T09:23:42.918Z,103327.48
2023-01-24T09:24:47.220Z,103332.92
2023-01-24T09:25:51.646Z,103332.53
2023-01-24T09:26:55.913Z,103332.6
2023-01-24T09:28:00.151Z,103336.13
2023-01-24T09:29:04.455Z,103331.2
2023-01-24T09:30:08.714Z,103337.08
2023-01-24T09:31:13.042Z,103336.73
2023-01-24T09:32:17.481Z,103338.8
2023-01-24T09:33:21.929Z,103340.72
2023-01-24T09:34:26.277Z,103337.61
2023-01-24T09:35:30.571Z,103339.34
2023-01-24T09:36:34.823Z,103343
2023-01-24T09:37:39.085Z,103343.15
2023-01-24T09:39:04.719Z,103336.41
2023-01-24T09:40:10.124Z,103341.39
2023-01-24T09:41:14.404Z,103341.88
2023-01-24T09:42:18.655Z,103345.23
2023-01-24T09:43:22.886Z,103347.53
2023-01-24T09:44:27.145Z,103354.83
2023-01-24T09:45:31.615Z,103353.66
2023-01-24T09:46:36.219Z,103356.27
2023-01-24T09:47:40.465Z,103358.17
2023-01-24T09:48:44.722Z,103355.49
2023-01-24T09:49:48.968Z,103359.09
2023-01-24T09:50:53.245Z,103363.95
2023-01-24T09:51:57.477Z,103360.04
2023-01-24T09:53:01.686Z,103357.82
2023-01-24T09:54:05.942Z,103357.39
2023-01-24T09:55:10.216Z,103356.48
2023-01-24T09:56:17.301Z,103357.75
2023-01-24T09:57:21.519Z,103361.66
2023-01-24T09:58:25.760Z,103349.95
2023-01-24T09:59:30.011Z,103356.62
2023-01-24T10:00:34.254Z,103355.42
2023-01-24T10:01:38.480Z,103350.12
2023-01-24T10:02:42.753Z,103353.75
2023-01-24T10:03:47.079Z,103348.41
2023-01-24T10:04:51.333Z,103353.3
2023-01-24T10:05:55.588Z,103353.17
2023-01-24T10:06:59.859Z,103354.83
2023-01-24T10:08:04.140Z,103351.17
2023-01-24T10:09:08.383Z,103354.7
2023-01-24T10:10:12.624Z,103355.45
2023-01-24T10:11:16.870Z,103352.19
2023-01-24T10:12:21.104Z,103352.38
2023-01-24T10:13:25.377Z,103355.6
2023-01-24T10:14:29.638Z,103359.48
2023-01-24T10:15:33.862Z,103352.61
2023-01-24T10:16:38.334Z,103352.92
2023-01-24T10:17:42.622Z,103349.78
2023-01-24T10:18:46.878Z,103356.14
2023-01-24T10:19:51.208Z,103353.49
2023-01-24T10:20:55.422Z,103350.47
2023-01-24T10:21:59.663Z,103355.11
2023-01-24T10:23:03.908Z,103358.75
2023-01-24T10:24:08.322Z,103356.64
2023-01-24T10:25:12.755Z,103356.98
2023-01-24T10:26:16.971Z,103359.39
2023-01-24T10:27:21.247Z,103356.33
2023-01-24T10:28:25.492Z,103359.63
2023-01-24T10:29:29.772Z,103358.89
2023-01-24T10:30:34.078Z,103359.05
2023-01-24T10:31:38.909Z,103354.22
2023-01-24T10:32:43.516Z,103350.27
2023-01-24T10:33:47.765Z,103355.82
2023-01-24T10:34:52.081Z,103353.29
2023-01-24T10:35:56.314Z,103348.5
2023-01-24T10:37:00.602Z,103353.09
2023-01-24T10:38:04.849Z,103351.55
2023-01-24T10:39:09.078Z,103354.77
2023-01-24T10:40:13.313Z,103352.66
2023-01-24T10:41:20.780Z,103352.38
2023-01-24T10:42:25.089Z,103348.05
2023-01-24T10:43:29.315Z,103342.8
2023-01-24T10:44:33.593Z,103343.41
2023-01-24T10:45:37.834Z,103340.42
2023-01-24T10:46:42.163Z,103341.77
2023-01-24T10:47:46.440Z,103337.36
2023-01-24T10:48:50.699Z,103337.86
2023-01-24T10:49:54.956Z,103335.29
2023-01-24T10:50:59.193Z,103327.7
2023-01-24T10:52:03.513Z,103324.27
2023-01-24T10:53:07.756Z,103323.95
2023-01-24T10:54:11.992Z,103325.81
2023-01-24T10:55:16.217Z,103325.86
2023-01-24T10:56:23.328Z,103324.48
2023-01-24T10:57:27.575Z,103320.92
2023-01-24T10:58:35.469Z,103321.45
2023-01-24T10:59:42.643Z,103325.09
2023-01-24T11:00:46.930Z,103325.23
2023-01-24T11:01:51.333Z,103321.64
2023-01-24T11:02:55.573Z,103319.8
2023-01-24T11:03:59.819Z,103323.4
2023-01-24T11:05:04.149Z,103322.87
2023-01-24T11:06:08.419Z,103315.89
2023-01-24T11:07:12.670Z,103317.77
2023-01-24T11:08:16.890Z,103319.71
2023-01-24T11:09:21.145Z,103316.46
2023-01-24T11:10:25.419Z,103312.83
2023-01-24T11:11:29.831Z,103312.86
2023-01-24T11:12:34.080Z,103313.86
2023-01-24T11:13:38.310Z,103315.73
2023-01-24T11:14:42.541Z,103316.34
2023-01-24T11:15:46.973Z,103314.26
2023-01-24T11:16:51.498Z,103310.28
2023-01-24T11:17:55.858Z,103310.98
2023-01-24T11:19:00.157Z,103315.27
2023-01-24T11:20:04.394Z,103303.98
2023-01-24T11:21:08.638Z,103309.16
2023-01-24T11:22:12.854Z,103312.53
2023-01-24T11:23:17.119Z,103306.84
2023-01-24T11:24:21.562Z,103311.02
2023-01-24T11:25:26.414Z,103312.41
2023-01-24T11:26:30.698Z,103311.69
2023-01-24T11:27:34.936Z,103311.45
2023-01-24T11:28:39.187Z,103314.3
2023-01-24T11:29:43.420Z,103314.1
2023-01-24T11:30:47.835Z,103314.87
2023-01-24T11:31:52.489Z,103308.59
2023-01-24T11:32:56.859Z,103320.55
2023-01-24T11:34:01.093Z,103312.5
2023-01-24T11:35:05.353Z,103310.23
2023-01-24T11:36:09.602Z,103308.97
2023-01-24T11:37:13.953Z,103312.23
2023-01-24T11:38:18.230Z,103311.46
2023-01-24T11:39:22.475Z,103300.89
2023-01-24T11:40:26.720Z,103305.33
2023-01-24T11:41:30.969Z,103304.45
2023-01-24T11:42:35.204Z,103304.95
2023-01-24T11:43:39.429Z,103308.16
2023-01-24T11:44:43.715Z,103303.38
2023-01-24T11:45:47.999Z,103304.41
2023-01-24T11:46:52.227Z,103302.64
2023-01-24T11:47:56.467Z,103303.22
2023-01-24T11:49:00.743Z,103297.63
2023-01-24T11:50:05.017Z,103299.88
2023-01-24T11:51:14.865Z,103294.13
2023-01-24T11:52:19.099Z,103293.68
2023-01-24T11:53:23.363Z,103302.75
2023-01-24T11:54:27.593Z,103294.33
2023-01-24T11:55:31.853Z,103295.33
2023-01-24T11:56:36.148Z,103291.92
2023-01-24T11:57:40.427Z,103292.83
2023-01-24T11:58:44.658Z,103289.77
2023-01-24T11:59:48.916Z,103288.08
2023-01-24T12:00:53.196Z,103287.7
2023-01-24T12:01:57.529Z,103285.52
2023-01-24T12:03:01.910Z,103289.19
2023-01-24T12:04:06.574Z,103290.98
2023-01-24T12:05:10.935Z,103284.78
2023-01-24T12:06:15.185Z,103291.06
2023-01-24T12:07:19.401Z,103287.57
2023-01-24T12:08:23.636Z,103288.91
2023-01-24T12:09:27.901Z,103282.25
2023-01-24T12:10:32.142Z,103286.27
2023-01-24T12:11:37.955Z,103289.83
2023-01-24T12:12:56.519Z,103289.91
2023-01-24T12:14:00.887Z,103287.22
2023-01-24T12:15:05.135Z,103281.02
2023-01-24T12:16:12.026Z,103282.36
2023-01-24T12:17:27.739Z,103280.53
2023-01-24T12:18:33.858Z,103277.84